sensor_id;sensor_type;location;lat;lon;timestamp;temperature;humidity
6008;DHT22;3032;49.484;11.112;2022-09-20T00:01:10;13.00;99.90
6008;DHT22;3032;49.484;11.112;2022-09-20T00:03:38;13.00;99.90
6008;DHT22;3032;49.484;11.112;2022-09-20T00:06:07;13.30;99.90
6008;DHT22;3032;49.484;11.112;2022-09-20T00:08:33;13.00;99.90
6008;DHT22;3032;49.484;11.112;2022-09-20T00:11:00;13.00;99.90
6008;DHT22;3032;49.484;11.112;2022-09-20T00:13:27;13.00;99.90
6008;DHT22;3032;49.484;11.112;2022-09-20T00:15:52;12.90;99.90
6008;DHT22;3032;49.484;11.112;2022-09-20T00:18:18;12.80;99.90
6008;DHT22;3032;49.484;11.112;2022-09-20T00:20:48;12.80;99.90
6008;DHT22;3032;49.484;11.112;2022-09-20T00:23:14;12.80;99.90
6008;DHT22;3032;49.484;11.112;2022-09-20T00:25:40;12.70;99.90
6008;DHT22;3032;49.484;11.112;2022-09-20T00:28:07;12.50;99.90
6008;DHT22;3032;49.484;11.112;2022-09-20T00:30:33;12.40;99.90
6008;DHT22;3032;49.484;11.112;2022-09-20T00:32:59;12.20;99.90
6008;DHT22;3032;49.484;11.112;2022-09-20T00:35:25;12.20;99.90
6008;DHT22;3032;49.484;11.112;2022-09-20T00:37:50;12.20;99.90
6008;DHT22;3032;49.484;11.112;2022-09-20T00:40:19;12.30;99.90
6008;DHT22;3032;49.484;11.112;2022-09-20T00:42:45;12.30;99.90
6008;DHT22;3032;49.484;11.112;2022-09-20T00:47:56;12.30;99.90
6008;DHT22;3032;49.484;11.112;2022-09-20T00:53:26;12.20;99.90
6008;DHT22;3032;49.484;11.112;2022-09-20T00:55:58;12.20;99.90
6008;DHT22;3032;49.484;11.112;2022-09-20T00:58:27;12.10;99.90
6008;DHT22;3032;49.484;11.112;2022-09-20T01:00:55;12.10;99.90
6008;DHT22;3032;49.484;11.112;2022-09-20T01:03:25;12.00;99.90
6008;DHT22;3032;49.484;11.112;2022-09-20T01:05:53;11.90;99.90
6008;DHT22;3032;49.484;11.112;2022-09-20T01:08:20;11.80;99.90
6008;DHT22;3032;49.484;11.112;2022-09-20T01:10:49;11.80;99.90
6008;DHT22;3032;49.484;11.112;2022-09-20T01:13:14;11.70;99.90
6008;DHT22;3032;49.484;11.112;2022-09-20T01:15:41;11.70;99.90
6008;DHT22;3032;49.484;11.112;2022-09-20T01:18:08;11.70;99.90
6008;DHT22;3032;49.484;11.112;2022-09-20T01:20:37;11.80;99.90
6008;DHT22;3032;49.484;11.112;2022-09-20T01:28:43;12.00;99.90
6008;DHT22;3032;49.484;11.112;2022-09-20T01:31:32;12.00;99.90
6008;DHT22;3032;49.484;11.112;2022-09-20T01:36:33;12.30;99.90
6008;DHT22;3032;49.484;11.112;2022-09-20T01:39:11;12.70;99.90
6008;DHT22;3032;49.484;11.112;2022-09-20T01:41:57;12.40;99.90
6008;DHT22;3032;49.484;11.112;2022-09-20T01:50:19;12.50;99.90
6008;DHT22;3032;49.484;11.112;2022-09-20T01:59:14;12.70;99.90
6008;DHT22;3032;49.484;11.112;2022-09-20T02:04:56;12.80;99.90
6008;DHT22;3032;49.484;11.112;2022-09-20T02:07:40;12.70;99.90
6008;DHT22;3032;49.484;11.112;2022-09-20T02:12:57;12.80;99.90
6008;DHT22;3032;49.484;11.112;2022-09-20T02:18:23;12.90;99.90
6008;DHT22;3032;49.484;11.112;2022-09-20T02:42:43;12.80;99.90
6008;DHT22;3032;49.484;11.112;2022-09-20T02:45:40;13.10;99.90
6008;DHT22;3032;49.484;11.112;2022-09-20T02:48:04;12.70;99.90
6008;DHT22;3032;49.484;11.112;2022-09-20T02:56:32;12.70;99.90
6008;DHT22;3032;49.484;11.112;2022-09-20T02:59:21;12.70;99.90
6008;DHT22;3032;49.484;11.112;2022-09-20T03:04:44;12.60;99.90
6008;DHT22;3032;49.484;11.112;2022-09-20T03:07:29;12.60;99.90
6008;DHT22;3032;49.484;11.112;2022-09-20T03:10:20;12.60;99.90
6008;DHT22;3032;49.484;11.112;2022-09-20T03:35:21;12.50;99.90
6008;DHT22;3032;49.484;11.112;2022-09-20T03:38:00;12.50;99.90
6008;DHT22;3032;49.484;11.112;2022-09-20T03:41:00;12.50;99.90
6008;DHT22;3032;49.484;11.112;2022-09-20T03:43:37;12.40;99.90
6008;DHT22;3032;49.484;11.112;2022-09-20T03:51:53;12.50;99.90
6008;DHT22;3032;49.484;11.112;2022-09-20T04:01:59;12.60;99.90
6008;DHT22;3032;49.484;11.112;2022-09-20T04:04:51;12.60;99.90
6008;DHT22;3032;49.484;11.112;2022-09-20T04:10:31;12.60;99.90
6008;DHT22;3032;49.484;11.112;2022-09-20T04:15:45;12.70;99.90
6008;DHT22;3032;49.484;11.112;2022-09-20T04:21:05;12.40;99.90
6008;DHT22;3032;49.484;11.112;2022-09-20T04:23:54;12.20;99.90
6008;DHT22;3032;49.484;11.112;2022-09-20T04:26:29;12.20;99.90
6008;DHT22;3032;49.484;11.112;2022-09-20T04:31:47;12.10;99.90
6008;DHT22;3032;49.484;11.112;2022-09-20T04:34:24;12.20;99.90
6008;DHT22;3032;49.484;11.112;2022-09-20T04:37:30;12.30;99.90
6008;DHT22;3032;49.484;11.112;2022-09-20T04:40:29;12.50;99.90
6008;DHT22;3032;49.484;11.112;2022-09-20T04:52:01;12.50;99.90
6008;DHT22;3032;49.484;11.112;2022-09-20T05:16:31;11.90;99.90
6008;DHT22;3032;49.484;11.112;2022-09-20T05:19:07;12.00;99.90
6008;DHT22;3032;49.484;11.112;2022-09-20T05:21:58;12.00;99.90
6008;DHT22;3032;49.484;11.112;2022-09-20T05:24:43;12.10;99.90
6008;DHT22;3032;49.484;11.112;2022-09-20T05:27:40;12.30;99.90
6008;DHT22;3032;49.484;11.112;2022-09-20T05:30:36;12.40;99.90
6008;DHT22;3032;49.484;11.112;2022-09-20T05:33:21;12.60;99.90
6008;DHT22;3032;49.484;11.112;2022-09-20T05:36:15;12.80;99.90
6008;DHT22;3032;49.484;11.112;2022-09-20T05:39:40;12.70;99.90
6008;DHT22;3032;49.484;11.112;2022-09-20T05:41:53;12.70;99.90
6008;DHT22;3032;49.484;11.112;2022-09-20T05:47:16;12.90;99.90
6008;DHT22;3032;49.484;11.112;2022-09-20T05:52:52;12.80;99.90
6008;DHT22;3032;49.484;11.112;2022-09-20T05:55:47;12.90;99.90
6008;DHT22;3032;49.484;11.112;2022-09-20T06:01:19;13.00;99.90
6008;DHT22;3032;49.484;11.112;2022-09-20T06:03:54;12.90;99.90
6008;DHT22;3032;49.484;11.112;2022-09-20T06:06:37;12.90;99.90
6008;DHT22;3032;49.484;11.112;2022-09-20T06:14:53;13.40;99.90
6008;DHT22;3032;49.484;11.112;2022-09-20T06:22:40;16.80;99.90
6008;DHT22;3032;49.484;11.112;2022-09-20T06:27:50;20.80;99.90
6008;DHT22;3032;49.484;11.112;2022-09-20T06:30:23;21.80;99.90
6008;DHT22;3032;49.484;11.112;2022-09-20T06:35:25;21.00;99.90
6008;DHT22;3032;49.484;11.112;2022-09-20T06:38:01;20.60;99.90
6008;DHT22;3032;49.484;11.112;2022-09-20T06:40:48;19.70;99.90
6008;DHT22;3032;49.484;11.112;2022-09-20T06:43:35;18.70;99.90
6008;DHT22;3032;49.484;11.112;2022-09-20T06:46:01;17.90;99.90
6008;DHT22;3032;49.484;11.112;2022-09-20T06:48:26;17.10;99.90
6008;DHT22;3032;49.484;11.112;2022-09-20T06:50:55;17.30;99.90
6008;DHT22;3032;49.484;11.112;2022-09-20T06:53:29;16.50;99.90
6008;DHT22;3032;49.484;11.112;2022-09-20T06:55:57;16.30;99.90
6008;DHT22;3032;49.484;11.112;2022-09-20T06:58:23;16.40;99.90
6008;DHT22;3032;49.484;11.112;2022-09-20T07:00:49;15.70;99.90
6008;DHT22;3032;49.484;11.112;2022-09-20T07:03:14;15.70;99.90
6008;DHT22;3032;49.484;11.112;2022-09-20T07:05:40;15.70;99.90
6008;DHT22;3032;49.484;11.112;2022-09-20T07:08:05;16.00;99.90
6008;DHT22;3032;49.484;11.112;2022-09-20T07:10:31;16.20;99.90
6008;DHT22;3032;49.484;11.112;2022-09-20T07:12:58;16.40;99.90
6008;DHT22;3032;49.484;11.112;2022-09-20T07:15:25;16.40;99.90
6008;DHT22;3032;49.484;11.112;2022-09-20T07:17:51;16.40;99.90
6008;DHT22;3032;49.484;11.112;2022-09-20T07:20:17;16.30;99.90
6008;DHT22;3032;49.484;11.112;2022-09-20T07:22:45;16.40;99.90
6008;DHT22;3032;49.484;11.112;2022-09-20T07:25:10;16.80;99.90
6008;DHT22;3032;49.484;11.112;2022-09-20T07:27:36;18.30;99.90
6008;DHT22;3032;49.484;11.112;2022-09-20T07:30:02;19.10;99.90
6008;DHT22;3032;49.484;11.112;2022-09-20T07:32:28;18.70;99.90
6008;DHT22;3032;49.484;11.112;2022-09-20T07:34:54;18.20;99.90
6008;DHT22;3032;49.484;11.112;2022-09-20T07:37:20;17.50;99.90
6008;DHT22;3032;49.484;11.112;2022-09-20T07:39:45;17.40;99.90
6008;DHT22;3032;49.484;11.112;2022-09-20T07:42:11;17.00;99.90
6008;DHT22;3032;49.484;11.112;2022-09-20T07:44:37;16.70;99.90
6008;DHT22;3032;49.484;11.112;2022-09-20T07:47:07;16.70;99.90
6008;DHT22;3032;49.484;11.112;2022-09-20T07:49:34;16.60;99.90
6008;DHT22;3032;49.484;11.112;2022-09-20T07:52:00;16.50;99.90
6008;DHT22;3032;49.484;11.112;2022-09-20T07:54:26;16.40;99.90
6008;DHT22;3032;49.484;11.112;2022-09-20T07:56:52;16.40;99.90
6008;DHT22;3032;49.484;11.112;2022-09-20T07:59:18;16.60;99.90
6008;DHT22;3032;49.484;11.112;2022-09-20T08:01:44;16.30;99.90
6008;DHT22;3032;49.484;11.112;2022-09-20T08:04:10;15.90;99.90
6008;DHT22;3032;49.484;11.112;2022-09-20T08:06:40;16.10;99.90
6008;DHT22;3032;49.484;11.112;2022-09-20T08:09:07;16.30;99.90
6008;DHT22;3032;49.484;11.112;2022-09-20T08:11:34;16.40;99.90
6008;DHT22;3032;49.484;11.112;2022-09-20T08:14:01;16.40;99.90
6008;DHT22;3032;49.484;11.112;2022-09-20T08:16:28;17.00;99.90
6008;DHT22;3032;49.484;11.112;2022-09-20T08:18:58;16.70;99.90
6008;DHT22;3032;49.484;11.112;2022-09-20T08:21:26;17.00;99.90
6008;DHT22;3032;49.484;11.112;2022-09-20T08:23:52;17.30;99.90
6008;DHT22;3032;49.484;11.112;2022-09-20T08:26:20;17.70;99.90
6008;DHT22;3032;49.484;11.112;2022-09-20T08:28:51;17.80;99.90
6008;DHT22;3032;49.484;11.112;2022-09-20T08:31:18;17.40;99.90
6008;DHT22;3032;49.484;11.112;2022-09-20T08:33:45;17.40;99.90
6008;DHT22;3032;49.484;11.112;2022-09-20T08:36:17;17.40;99.90
6008;DHT22;3032;49.484;11.112;2022-09-20T08:38:43;17.40;99.90
6008;DHT22;3032;49.484;11.112;2022-09-20T08:46:26;17.40;99.90
6008;DHT22;3032;49.484;11.112;2022-09-20T08:48:54;17.80;99.90
6008;DHT22;3032;49.484;11.112;2022-09-20T08:51:22;17.50;99.90
6008;DHT22;3032;49.484;11.112;2022-09-20T08:53:51;17.50;99.90
6008;DHT22;3032;49.484;11.112;2022-09-20T08:56:18;17.40;99.90
6008;DHT22;3032;49.484;11.112;2022-09-20T08:58:44;17.20;99.90
6008;DHT22;3032;49.484;11.112;2022-09-20T09:01:19;17.10;99.90
6008;DHT22;3032;49.484;11.112;2022-09-20T09:03:45;16.80;99.90
6008;DHT22;3032;49.484;11.112;2022-09-20T09:06:12;16.60;99.90
6008;DHT22;3032;49.484;11.112;2022-09-20T09:08:39;17.10;99.90
6008;DHT22;3032;49.484;11.112;2022-09-20T09:11:15;17.40;99.90
6008;DHT22;3032;49.484;11.112;2022-09-20T09:16:22;16.90;99.90
6008;DHT22;3032;49.484;11.112;2022-09-20T09:18:48;16.30;99.90
6008;DHT22;3032;49.484;11.112;2022-09-20T09:21:22;16.10;99.90
6008;DHT22;3032;49.484;11.112;2022-09-20T09:24:11;16.20;99.90
6008;DHT22;3032;49.484;11.112;2022-09-20T09:26:39;17.90;99.90
6008;DHT22;3032;49.484;11.112;2022-09-20T09:29:20;18.80;99.90
6008;DHT22;3032;49.484;11.112;2022-09-20T09:31:49;19.40;99.90
6008;DHT22;3032;49.484;11.112;2022-09-20T09:34:33;20.60;99.90
6008;DHT22;3032;49.484;11.112;2022-09-20T09:36:59;21.30;99.90
6008;DHT22;3032;49.484;11.112;2022-09-20T09:39:29;22.40;99.90
6008;DHT22;3032;49.484;11.112;2022-09-20T09:41:56;23.70;99.90
6008;DHT22;3032;49.484;11.112;2022-09-20T09:44:27;24.70;99.20
6008;DHT22;3032;49.484;11.112;2022-09-20T09:46:54;26.10;95.40
6008;DHT22;3032;49.484;11.112;2022-09-20T09:49:24;26.50;92.10
6008;DHT22;3032;49.484;11.112;2022-09-20T09:54:51;25.60;90.10
6008;DHT22;3032;49.484;11.112;2022-09-20T10:08:50;25.90;90.40
6008;DHT22;3032;49.484;11.112;2022-09-20T10:11:33;26.20;88.50
6008;DHT22;3032;49.484;11.112;2022-09-20T10:14:28;25.20;87.70
6008;DHT22;3032;49.484;11.112;2022-09-20T10:36:31;20.20;93.50
6008;DHT22;3032;49.484;11.112;2022-09-20T10:39:14;19.60;95.40
6008;DHT22;3032;49.484;11.112;2022-09-20T10:41:44;18.80;97.90
6008;DHT22;3032;49.484;11.112;2022-09-20T10:44:36;18.30;98.60
6008;DHT22;3032;49.484;11.112;2022-09-20T10:55:23;20.00;98.40
6008;DHT22;3032;49.484;11.112;2022-09-20T11:08:39;17.70;99.90
6008;DHT22;3032;49.484;11.112;2022-09-20T11:11:10;17.50;99.90
6008;DHT22;3032;49.484;11.112;2022-09-20T11:19:29;18.30;99.90
6008;DHT22;3032;49.484;11.112;2022-09-20T11:22:13;18.60;99.90
6008;DHT22;3032;49.484;11.112;2022-09-20T11:24:47;19.60;99.90
6008;DHT22;3032;49.484;11.112;2022-09-20T11:29:52;18.90;99.90
6008;DHT22;3032;49.484;11.112;2022-09-20T11:32:24;19.30;99.90
6008;DHT22;3032;49.484;11.112;2022-09-20T11:34:56;19.20;99.90
6008;DHT22;3032;49.484;11.112;2022-09-20T11:37:32;18.90;99.90
6008;DHT22;3032;49.484;11.112;2022-09-20T11:42:49;19.10;99.90
6008;DHT22;3032;49.484;11.112;2022-09-20T11:45:17;19.00;99.90
6008;DHT22;3032;49.484;11.112;2022-09-20T11:47:47;19.10;99.90
6008;DHT22;3032;49.484;11.112;2022-09-20T11:58:29;20.50;99.10
6008;DHT22;3032;49.484;11.112;2022-09-20T12:00:56;20.80;99.20
6008;DHT22;3032;49.484;11.112;2022-09-20T12:03:24;20.70;99.50
6008;DHT22;3032;49.484;11.112;2022-09-20T12:06:26;20.10;98.90
6008;DHT22;3032;49.484;11.112;2022-09-20T12:08:54;19.90;98.80
6008;DHT22;3032;49.484;11.112;2022-09-20T12:11:31;19.50;98.50
6008;DHT22;3032;49.484;11.112;2022-09-20T12:14:04;19.40;98.70
6008;DHT22;3032;49.484;11.112;2022-09-20T12:16:37;19.20;99.90
6008;DHT22;3032;49.484;11.112;2022-09-20T12:24:38;18.90;99.50
6008;DHT22;3032;49.484;11.112;2022-09-20T12:27:20;18.40;98.80
6008;DHT22;3032;49.484;11.112;2022-09-20T12:32:40;18.20;99.90
6008;DHT22;3032;49.484;11.112;2022-09-20T12:38:30;18.80;99.90
6008;DHT22;3032;49.484;11.112;2022-09-20T12:43:23;19.70;99.10
6008;DHT22;3032;49.484;11.112;2022-09-20T12:45:53;19.80;96.90
6008;DHT22;3032;49.484;11.112;2022-09-20T12:48:19;19.80;95.70
6008;DHT22;3032;49.484;11.112;2022-09-20T12:51:21;19.70;95.30
6008;DHT22;3032;49.484;11.112;2022-09-20T12:54:09;19.50;95.60
6008;DHT22;3032;49.484;11.112;2022-09-20T12:56:38;19.40;96.20
6008;DHT22;3032;49.484;11.112;2022-09-20T12:59:17;19.20;95.50
6008;DHT22;3032;49.484;11.112;2022-09-20T13:01:45;19.10;96.10
6008;DHT22;3032;49.484;11.112;2022-09-20T13:04:40;19.20;97.00
6008;DHT22;3032;49.484;11.112;2022-09-20T13:07:46;18.60;96.50
6008;DHT22;3032;49.484;11.112;2022-09-20T13:10:21;18.70;97.20
6008;DHT22;3032;49.484;11.112;2022-09-20T13:12:51;18.70;97.00
6008;DHT22;3032;49.484;11.112;2022-09-20T13:15:19;18.70;97.20
6008;DHT22;3032;49.484;11.112;2022-09-20T13:17:48;18.80;97.60
6008;DHT22;3032;49.484;11.112;2022-09-20T13:20:22;18.70;97.50
6008;DHT22;3032;49.484;11.112;2022-09-20T13:22:51;18.60;97.80
6008;DHT22;3032;49.484;11.112;2022-09-20T13:25:18;18.50;97.30
6008;DHT22;3032;49.484;11.112;2022-09-20T13:30:45;18.30;96.70
6008;DHT22;3032;49.484;11.112;2022-09-20T13:35:45;17.90;98.20
6008;DHT22;3032;49.484;11.112;2022-09-20T13:38:13;17.90;98.20
6008;DHT22;3032;49.484;11.112;2022-09-20T13:40:45;17.90;96.90
6008;DHT22;3032;49.484;11.112;2022-09-20T13:45:57;17.90;97.60
6008;DHT22;3032;49.484;11.112;2022-09-20T13:48:25;18.10;98.00
6008;DHT22;3032;49.484;11.112;2022-09-20T13:50:51;18.00;98.70
6008;DHT22;3032;49.484;11.112;2022-09-20T13:53:17;18.20;97.20
6008;DHT22;3032;49.484;11.112;2022-09-20T13:55:43;18.40;97.60
6008;DHT22;3032;49.484;11.112;2022-09-20T13:58:29;18.50;96.50
6008;DHT22;3032;49.484;11.112;2022-09-20T14:01:00;18.50;96.70
6008;DHT22;3032;49.484;11.112;2022-09-20T14:03:28;18.40;96.80
6008;DHT22;3032;49.484;11.112;2022-09-20T14:05:57;18.90;97.60
6008;DHT22;3032;49.484;11.112;2022-09-20T14:08:30;18.60;97.10
6008;DHT22;3032;49.484;11.112;2022-09-20T14:11:07;18.90;98.00
6008;DHT22;3032;49.484;11.112;2022-09-20T14:13:39;19.50;96.90
6008;DHT22;3032;49.484;11.112;2022-09-20T14:16:06;19.80;96.50
6008;DHT22;3032;49.484;11.112;2022-09-20T14:18:34;19.90;96.00
6008;DHT22;3032;49.484;11.112;2022-09-20T14:21:00;20.10;95.50
6008;DHT22;3032;49.484;11.112;2022-09-20T14:23:28;20.20;96.10
6008;DHT22;3032;49.484;11.112;2022-09-20T14:28:44;19.70;94.20
6008;DHT22;3032;49.484;11.112;2022-09-20T14:31:16;19.30;94.00
6008;DHT22;3032;49.484;11.112;2022-09-20T14:33:46;19.10;94.10
6008;DHT22;3032;49.484;11.112;2022-09-20T14:36:15;18.70;94.50
6008;DHT22;3032;49.484;11.112;2022-09-20T14:38:58;18.70;95.30
6008;DHT22;3032;49.484;11.112;2022-09-20T14:41:38;18.60;94.90
6008;DHT22;3032;49.484;11.112;2022-09-20T14:44:15;18.40;93.40
6008;DHT22;3032;49.484;11.112;2022-09-20T14:46:42;18.50;92.40
6008;DHT22;3032;49.484;11.112;2022-09-20T14:49:32;18.40;92.90
6008;DHT22;3032;49.484;11.112;2022-09-20T14:57:39;18.60;94.70
6008;DHT22;3032;49.484;11.112;2022-09-20T15:00:16;18.40;94.30
6008;DHT22;3032;49.484;11.112;2022-09-20T15:02:43;18.40;95.90
6008;DHT22;3032;49.484;11.112;2022-09-20T15:05:23;18.40;96.30
6008;DHT22;3032;49.484;11.112;2022-09-20T15:07:54;18.50;96.10
6008;DHT22;3032;49.484;11.112;2022-09-20T15:10:20;18.40;96.10
6008;DHT22;3032;49.484;11.112;2022-09-20T15:12:47;18.70;96.10
6008;DHT22;3032;49.484;11.112;2022-09-20T15:15:14;18.80;94.90
6008;DHT22;3032;49.484;11.112;2022-09-20T15:17:41;18.40;94.40
6008;DHT22;3032;49.484;11.112;2022-09-20T15:20:15;18.30;94.70
6008;DHT22;3032;49.484;11.112;2022-09-20T15:22:41;18.10;95.70
6008;DHT22;3032;49.484;11.112;2022-09-20T15:25:11;18.10;97.80
6008;DHT22;3032;49.484;11.112;2022-09-20T15:27:38;17.80;99.90
6008;DHT22;3032;49.484;11.112;2022-09-20T15:30:04;17.20;99.90
6008;DHT22;3032;49.484;11.112;2022-09-20T15:32:29;16.60;99.90
6008;DHT22;3032;49.484;11.112;2022-09-20T15:34:55;15.90;99.90
6008;DHT22;3032;49.484;11.112;2022-09-20T15:37:21;15.60;99.90
6008;DHT22;3032;49.484;11.112;2022-09-20T15:39:47;15.40;99.90
6008;DHT22;3032;49.484;11.112;2022-09-20T15:42:12;15.40;99.90
6008;DHT22;3032;49.484;11.112;2022-09-20T15:44:38;15.20;99.90
6008;DHT22;3032;49.484;11.112;2022-09-20T15:47:03;15.60;99.90
6008;DHT22;3032;49.484;11.112;2022-09-20T15:49:29;14.90;99.90
6008;DHT22;3032;49.484;11.112;2022-09-20T15:51:55;14.90;99.90
6008;DHT22;3032;49.484;11.112;2022-09-20T15:54:21;15.00;99.90
6008;DHT22;3032;49.484;11.112;2022-09-20T15:56:47;15.00;99.90
6008;DHT22;3032;49.484;11.112;2022-09-20T15:59:13;15.00;99.90
6008;DHT22;3032;49.484;11.112;2022-09-20T16:01:42;15.00;99.90
6008;DHT22;3032;49.484;11.112;2022-09-20T16:04:18;15.00;99.90
6008;DHT22;3032;49.484;11.112;2022-09-20T16:06:45;15.00;99.90
6008;DHT22;3032;49.484;11.112;2022-09-20T16:09:11;15.20;99.90
6008;DHT22;3032;49.484;11.112;2022-09-20T16:11:38;15.20;99.90
6008;DHT22;3032;49.484;11.112;2022-09-20T16:14:04;15.20;99.90
6008;DHT22;3032;49.484;11.112;2022-09-20T16:16:31;15.30;99.90
6008;DHT22;3032;49.484;11.112;2022-09-20T16:18:57;15.40;99.90
6008;DHT22;3032;49.484;11.112;2022-09-20T16:21:43;15.50;99.90
6008;DHT22;3032;49.484;11.112;2022-09-20T16:24:15;15.40;99.90
6008;DHT22;3032;49.484;11.112;2022-09-20T16:26:41;15.30;99.90
6008;DHT22;3032;49.484;11.112;2022-09-20T16:29:07;15.30;99.90
6008;DHT22;3032;49.484;11.112;2022-09-20T16:31:37;15.00;99.90
6008;DHT22;3032;49.484;11.112;2022-09-20T16:37:08;14.90;99.90
6008;DHT22;3032;49.484;11.112;2022-09-20T16:39:34;14.60;99.90
6008;DHT22;3032;49.484;11.112;2022-09-20T16:42:02;14.50;99.90
6008;DHT22;3032;49.484;11.112;2022-09-20T16:44:33;14.20;99.90
6008;DHT22;3032;49.484;11.112;2022-09-20T16:46:58;14.00;99.90
6008;DHT22;3032;49.484;11.112;2022-09-20T16:49:24;13.60;99.90
6008;DHT22;3032;49.484;11.112;2022-09-20T16:51:53;13.50;99.90
6008;DHT22;3032;49.484;11.112;2022-09-20T16:54:19;13.40;99.90
6008;DHT22;3032;49.484;11.112;2022-09-20T16:56:46;13.30;99.90
6008;DHT22;3032;49.484;11.112;2022-09-20T16:59:14;12.50;99.90
6008;DHT22;3032;49.484;11.112;2022-09-20T17:01:40;12.50;99.90
6008;DHT22;3032;49.484;11.112;2022-09-20T17:04:07;12.80;99.90
6008;DHT22;3032;49.484;11.112;2022-09-20T17:06:34;12.90;99.90
6008;DHT22;3032;49.484;11.112;2022-09-20T17:09:00;13.10;99.90
6008;DHT22;3032;49.484;11.112;2022-09-20T17:11:31;13.30;99.90
6008;DHT22;3032;49.484;11.112;2022-09-20T17:13:57;13.40;99.90
6008;DHT22;3032;49.484;11.112;2022-09-20T17:16:27;13.40;99.90
6008;DHT22;3032;49.484;11.112;2022-09-20T17:18:57;13.50;99.90
6008;DHT22;3032;49.484;11.112;2022-09-20T17:21:23;13.50;99.90
6008;DHT22;3032;49.484;11.112;2022-09-20T17:23:52;13.90;99.90
6008;DHT22;3032;49.484;11.112;2022-09-20T17:26:24;13.60;99.90
6008;DHT22;3032;49.484;11.112;2022-09-20T17:28:52;13.50;99.90
6008;DHT22;3032;49.484;11.112;2022-09-20T17:31:22;13.40;99.90
6008;DHT22;3032;49.484;11.112;2022-09-20T17:33:50;13.30;99.90
6008;DHT22;3032;49.484;11.112;2022-09-20T17:36:17;13.30;99.90
6008;DHT22;3032;49.484;11.112;2022-09-20T17:38:44;13.30;99.90
6008;DHT22;3032;49.484;11.112;2022-09-20T17:41:18;13.40;99.90
6008;DHT22;3032;49.484;11.112;2022-09-20T17:43:45;13.30;99.90
6008;DHT22;3032;49.484;11.112;2022-09-20T17:46:29;13.20;99.90
6008;DHT22;3032;49.484;11.112;2022-09-20T17:49:00;13.30;99.90
6008;DHT22;3032;49.484;11.112;2022-09-20T17:51:29;13.30;99.90
6008;DHT22;3032;49.484;11.112;2022-09-20T17:53:55;13.30;99.90
6008;DHT22;3032;49.484;11.112;2022-09-20T17:56:21;13.20;99.90
6008;DHT22;3032;49.484;11.112;2022-09-20T17:58:49;13.00;99.90
6008;DHT22;3032;49.484;11.112;2022-09-20T18:01:17;12.80;99.90
6008;DHT22;3032;49.484;11.112;2022-09-20T18:03:45;12.90;99.90
6008;DHT22;3032;49.484;11.112;2022-09-20T18:06:19;12.80;99.90
6008;DHT22;3032;49.484;11.112;2022-09-20T18:08:47;12.80;99.90
6008;DHT22;3032;49.484;11.112;2022-09-20T18:11:14;12.90;99.90
6008;DHT22;3032;49.484;11.112;2022-09-20T18:13:40;12.90;99.90
6008;DHT22;3032;49.484;11.112;2022-09-20T18:16:10;12.80;99.90
6008;DHT22;3032;49.484;11.112;2022-09-20T18:18:37;12.80;99.90
6008;DHT22;3032;49.484;11.112;2022-09-20T18:21:14;12.70;99.90
6008;DHT22;3032;49.484;11.112;2022-09-20T18:23:42;12.50;99.90
6008;DHT22;3032;49.484;11.112;2022-09-20T18:26:12;12.70;99.90
6008;DHT22;3032;49.484;11.112;2022-09-20T18:28:58;12.20;99.90
6008;DHT22;3032;49.484;11.112;2022-09-20T18:31:28;11.90;99.90
6008;DHT22;3032;49.484;11.112;2022-09-20T18:33:57;11.90;99.90
6008;DHT22;3032;49.484;11.112;2022-09-20T18:36:25;12.00;99.90
6008;DHT22;3032;49.484;11.112;2022-09-20T18:38:52;12.00;99.90
6008;DHT22;3032;49.484;11.112;2022-09-20T18:41:23;12.10;99.90
6008;DHT22;3032;49.484;11.112;2022-09-20T18:43:50;12.20;99.90
6008;DHT22;3032;49.484;11.112;2022-09-20T18:46:16;12.20;99.90
6008;DHT22;3032;49.484;11.112;2022-09-20T18:48:48;12.20;99.90
6008;DHT22;3032;49.484;11.112;2022-09-20T18:51:15;12.20;99.90
6008;DHT22;3032;49.484;11.112;2022-09-20T18:53:41;12.10;99.90
6008;DHT22;3032;49.484;11.112;2022-09-20T18:56:21;12.10;99.90
6008;DHT22;3032;49.484;11.112;2022-09-20T18:58:52;12.00;99.90
6008;DHT22;3032;49.484;11.112;2022-09-20T19:12:39;11.60;99.90
6008;DHT22;3032;49.484;11.112;2022-09-20T19:17:47;11.50;99.90
6008;DHT22;3032;49.484;11.112;2022-09-20T19:23:08;11.40;99.90
6008;DHT22;3032;49.484;11.112;2022-09-20T19:25:40;11.40;99.90
6008;DHT22;3032;49.484;11.112;2022-09-20T19:28:10;11.40;99.90
6008;DHT22;3032;49.484;11.112;2022-09-20T19:30:37;11.30;99.90
6008;DHT22;3032;49.484;11.112;2022-09-20T19:33:04;11.30;99.90
6008;DHT22;3032;49.484;11.112;2022-09-20T19:35:34;11.20;99.90
6008;DHT22;3032;49.484;11.112;2022-09-20T19:43:42;11.10;99.90
6008;DHT22;3032;49.484;11.112;2022-09-20T19:48:54;11.10;99.90
6008;DHT22;3032;49.484;11.112;2022-09-20T19:51:22;11.10;99.90
6008;DHT22;3032;49.484;11.112;2022-09-20T19:53:48;11.00;99.90
6008;DHT22;3032;49.484;11.112;2022-09-20T19:56:25;11.00;99.90
6008;DHT22;3032;49.484;11.112;2022-09-20T19:58:54;11.00;99.90
6008;DHT22;3032;49.484;11.112;2022-09-20T20:01:24;10.70;99.90
6008;DHT22;3032;49.484;11.112;2022-09-20T20:03:51;10.60;99.90
6008;DHT22;3032;49.484;11.112;2022-09-20T20:06:19;10.40;99.90
6008;DHT22;3032;49.484;11.112;2022-09-20T20:11:57;10.60;99.90
6008;DHT22;3032;49.484;11.112;2022-09-20T20:17:47;10.40;99.90
6008;DHT22;3032;49.484;11.112;2022-09-20T20:23:14;10.40;99.90
6008;DHT22;3032;49.484;11.112;2022-09-20T20:26:04;10.30;99.90
6008;DHT22;3032;49.484;11.112;2022-09-20T20:28:30;10.20;99.90
6008;DHT22;3032;49.484;11.112;2022-09-20T20:30:56;10.20;99.90
6008;DHT22;3032;49.484;11.112;2022-09-20T20:33:26;10.20;99.90
6008;DHT22;3032;49.484;11.112;2022-09-20T20:35:56;10.20;99.90
6008;DHT22;3032;49.484;11.112;2022-09-20T20:38:23;10.20;99.90
6008;DHT22;3032;49.484;11.112;2022-09-20T20:41:08;10.10;99.90
6008;DHT22;3032;49.484;11.112;2022-09-20T20:43:39;10.20;99.90
6008;DHT22;3032;49.484;11.112;2022-09-20T20:46:07;10.00;99.90
6008;DHT22;3032;49.484;11.112;2022-09-20T20:48:33;9.90;99.90
6008;DHT22;3032;49.484;11.112;2022-09-20T20:51:11;9.90;99.90
6008;DHT22;3032;49.484;11.112;2022-09-20T20:53:45;9.90;99.90
6008;DHT22;3032;49.484;11.112;2022-09-20T20:56:20;9.90;99.90
6008;DHT22;3032;49.484;11.112;2022-09-20T20:58:47;9.80;99.90
6008;DHT22;3032;49.484;11.112;2022-09-20T21:01:18;9.80;99.90
6008;DHT22;3032;49.484;11.112;2022-09-20T21:03:52;9.80;99.90
6008;DHT22;3032;49.484;11.112;2022-09-20T21:06:19;9.80;99.90
6008;DHT22;3032;49.484;11.112;2022-09-20T21:08:46;9.20;99.90
6008;DHT22;3032;49.484;11.112;2022-09-20T21:11:14;8.90;99.90
6008;DHT22;3032;49.484;11.112;2022-09-20T21:13:41;8.60;99.90
6008;DHT22;3032;49.484;11.112;2022-09-20T21:16:13;8.90;99.90
6008;DHT22;3032;49.484;11.112;2022-09-20T21:18:40;9.10;99.90
6008;DHT22;3032;49.484;11.112;2022-09-20T21:21:29;9.30;99.90
6008;DHT22;3032;49.484;11.112;2022-09-20T21:23:57;9.50;99.90
6008;DHT22;3032;49.484;11.112;2022-09-20T21:26:24;9.50;99.90
6008;DHT22;3032;49.484;11.112;2022-09-20T21:28:52;9.50;99.90
6008;DHT22;3032;49.484;11.112;2022-09-20T21:31:20;9.50;99.90